createdAt,value
2023-01-17T00:01:49.049Z,13.38
2023-01-17T00:04:34.017Z,13.43
2023-01-17T00:07:19.242Z,12.18
2023-01-17T00:09:56.694Z,12.35
2023-01-17T00:12:24.430Z,13.57
2023-01-17T00:14:51.580Z,16.35
2023-01-17T00:17:17.992Z,14.65
2023-01-17T00:20:02.971Z,14.57
2023-01-17T00:22:48.868Z,13.70
2023-01-17T00:25:35.620Z,14.48
2023-01-17T00:28:02.316Z,13.55
2023-01-17T00:30:29.320Z,15.43
2023-01-17T00:32:55.711Z,15.18
2023-01-17T00:35:22.974Z,15.18
2023-01-17T00:37:49.506Z,15.93
2023-01-17T00:40:15.966Z,15.73
2023-01-17T00:42:42.481Z,18.20
2023-01-17T00:45:27.867Z,16.95
2023-01-17T00:48:12.966Z,14.88
2023-01-17T00:50:58.282Z,17.13
2023-01-17T00:53:43.398Z,15.75
2023-01-17T00:56:28.730Z,14.80
2023-01-17T00:59:13.816Z,15.88
2023-01-17T01:01:59.301Z,15.00
2023-01-17T01:04:44.366Z,16.00
2023-01-17T01:07:29.407Z,15.18
2023-01-17T01:10:14.615Z,14.85
2023-01-17T01:12:59.714Z,14.77
2023-01-17T01:15:44.768Z,14.80
2023-01-17T01:18:30.630Z,15.45
2023-01-17T01:21:20.279Z,13.20
2023-01-17T01:24:05.748Z,15.65
2023-01-17T01:26:50.918Z,15.02
2023-01-17T01:29:36.262Z,13.85
2023-01-17T01:32:21.507Z,14.75
2023-01-17T01:34:47.978Z,15.07
2023-01-17T01:37:14.388Z,15.07
2023-01-17T01:39:40.835Z,15.55
2023-01-17T01:42:13.266Z,17.42
2023-01-17T01:44:42.645Z,15.88
2023-01-17T01:47:13.795Z,15.40
2023-01-17T01:49:40.363Z,15.63
2023-01-17T01:52:08.035Z,16.35
2023-01-17T01:54:37.041Z,17.27
2023-01-17T01:57:04.938Z,15.73
2023-01-17T01:59:32.781Z,15.85
2023-01-17T02:01:59.576Z,18.85
2023-01-17T02:04:27.287Z,17.95
2023-01-17T02:06:57.769Z,16.75
2023-01-17T02:09:24.409Z,17.63
2023-01-17T02:11:50.920Z,17.90
2023-01-17T02:14:17.991Z,18.25
2023-01-17T02:17:02.938Z,19.25
2023-01-17T02:19:48.314Z,18.02
2023-01-17T02:22:20.555Z,19.55
2023-01-17T02:24:53.102Z,18.20
2023-01-17T02:27:27.214Z,18.83
2023-01-17T02:30:11.890Z,21.70
2023-01-17T02:32:45.301Z,21.95
2023-01-17T02:37:46.588Z,19.08
2023-01-17T02:40:14.332Z,19.10
2023-01-17T02:42:44.647Z,20.27
2023-01-17T02:45:15.384Z,20.65
2023-01-17T02:47:41.802Z,22.58
2023-01-17T02:50:10.570Z,20.08
2023-01-17T02:52:46.088Z,21.55
2023-01-17T02:55:16.717Z,17.75
2023-01-17T02:58:06.717Z,20.88
2023-01-17T03:00:46.258Z,22.15
2023-01-17T03:03:12.709Z,21.38
2023-01-17T03:05:51.360Z,23.00
2023-01-17T03:08:18.426Z,19.90
2023-01-17T03:10:45.436Z,18.52
2023-01-17T03:13:11.899Z,22.25
2023-01-17T03:15:39.205Z,21.13
2023-01-17T03:18:07.794Z,22.30
2023-01-17T03:20:34.195Z,21.05
2023-01-17T03:23:00.773Z,21.08
2023-01-17T03:25:27.381Z,20.73
2023-01-17T03:27:54.677Z,22.65
2023-01-17T03:30:22.986Z,20.60
2023-01-17T03:32:49.532Z,20.58
2023-01-17T03:35:16.160Z,19.70
2023-01-17T03:37:42.775Z,21.42
2023-01-17T03:40:09.937Z,22.45
2023-01-17T03:42:36.348Z,22.75
2023-01-17T03:45:02.911Z,18.75
2023-01-17T03:47:29.377Z,18.77
2023-01-17T03:49:55.804Z,20.33
2023-01-17T03:52:22.221Z,20.13
2023-01-17T03:54:48.909Z,21.45
2023-01-17T03:57:15.731Z,20.23
2023-01-17T03:59:42.354Z,20.73
2023-01-17T04:02:08.948Z,19.67
2023-01-17T04:04:35.443Z,18.67
2023-01-17T04:07:01.894Z,19.52
2023-01-17T04:09:28.419Z,19.25
2023-01-17T04:11:54.874Z,18.83
2023-01-17T04:14:21.310Z,17.98
2023-01-17T04:16:47.817Z,17.90
2023-01-17T04:19:14.301Z,15.40
2023-01-17T04:21:40.697Z,20.05
2023-01-17T04:24:07.290Z,17.42
2023-01-17T04:26:33.708Z,16.63
2023-01-17T04:29:00.210Z,15.75
2023-01-17T04:31:26.632Z,15.40
2023-01-17T04:33:53.158Z,14.23
2023-01-17T04:36:19.563Z,14.65
2023-01-17T04:38:46.126Z,16.42
2023-01-17T04:41:12.597Z,15.85
2023-01-17T04:43:39.170Z,14.43
2023-01-17T04:46:09.960Z,16.13
2023-01-17T04:48:36.887Z,16.27
2023-01-17T04:51:04.269Z,14.73
2023-01-17T04:53:30.977Z,14.25
2023-01-17T04:55:57.567Z,12.63
2023-01-17T04:58:24.304Z,14.13
2023-01-17T05:00:51.786Z,12.63
2023-01-17T05:03:19.034Z,14.55
2023-01-17T05:05:45.615Z,15.10
2023-01-17T05:08:12.168Z,14.27
2023-01-17T05:10:38.661Z,12.70
2023-01-17T05:13:05.181Z,13.40
2023-01-17T05:15:34.365Z,12.05
2023-01-17T05:18:00.849Z,12.98
2023-01-17T05:20:27.840Z,14.23
2023-01-17T05:22:56.440Z,14.05
2023-01-17T05:25:27.275Z,13.48
2023-01-17T05:27:53.801Z,12.02
2023-01-17T05:30:20.657Z,13.93
2023-01-17T05:32:54.281Z,14.45
2023-01-17T05:35:22.482Z,11.98
2023-01-17T05:37:49.947Z,13.68
2023-01-17T05:40:17.080Z,12.18
2023-01-17T05:42:50.015Z,12.38
2023-01-17T05:45:17.118Z,12.10
2023-01-17T05:47:44.274Z,14.57
2023-01-17T05:50:11.936Z,13.10
2023-01-17T05:52:38.371Z,13.68
2023-01-17T05:55:06.725Z,11.20
2023-01-17T05:57:33.462Z,12.80
2023-01-17T05:59:59.906Z,12.65
2023-01-17T06:02:26.397Z,12.75
2023-01-17T06:04:52.978Z,11.95
2023-01-17T06:07:19.430Z,12.43
2023-01-17T06:09:45.856Z,12.52
2023-01-17T06:12:12.288Z,13.57
2023-01-17T06:14:38.829Z,14.73
2023-01-17T06:17:05.396Z,13.15
2023-01-17T06:19:31.799Z,12.95
2023-01-17T06:21:58.207Z,13.90
2023-01-17T06:24:24.699Z,13.13
2023-01-17T06:26:51.130Z,13.75
2023-01-17T06:29:17.547Z,13.95
2023-01-17T06:31:44.066Z,13.75
2023-01-17T06:34:10.475Z,12.73
2023-01-17T06:36:36.936Z,13.88
2023-01-17T06:39:03.443Z,14.05
2023-01-17T06:41:29.899Z,13.75
2023-01-17T06:43:56.407Z,14.48
2023-01-17T06:46:23.346Z,13.32
2023-01-17T06:48:50.201Z,13.45
2023-01-17T06:51:16.737Z,12.95
2023-01-17T06:53:43.215Z,14.32
2023-01-17T06:56:09.870Z,13.82
2023-01-17T06:58:36.371Z,14.18
2023-01-17T07:01:06.797Z,14.13
2023-01-17T07:03:33.437Z,14.25
2023-01-17T07:06:02.889Z,15.02
2023-01-17T07:08:29.421Z,14.80
2023-01-17T07:11:00.352Z,14.35
2023-01-17T07:13:27.167Z,13.50
2023-01-17T07:15:53.863Z,15.25
2023-01-17T07:18:23.209Z,16.85
2023-01-17T07:20:50.412Z,15.35
2023-01-17T07:23:17.103Z,13.93
2023-01-17T07:25:43.547Z,15.15
2023-01-17T07:28:10.035Z,15.73
2023-01-17T07:30:36.794Z,14.07
2023-01-17T07:33:03.347Z,14.80
2023-01-17T07:35:29.844Z,17.92
2023-01-17T07:37:56.339Z,15.98
2023-01-17T07:40:22.845Z,17.50
2023-01-17T07:42:49.365Z,16.83
2023-01-17T07:45:16.129Z,15.95
2023-01-17T07:47:42.641Z,16.38
2023-01-17T07:50:09.465Z,15.30
2023-01-17T07:52:35.889Z,15.07
2023-01-17T07:55:02.335Z,14.18
2023-01-17T07:57:28.944Z,14.43
2023-01-17T07:59:55.357Z,13.13
2023-01-17T08:02:23.013Z,13.15
2023-01-17T08:04:49.748Z,11.73
2023-01-17T08:07:16.196Z,12.13
2023-01-17T08:09:43.789Z,12.88
2023-01-17T08:12:10.427Z,14.13
2023-01-17T08:14:37.049Z,13.07
2023-01-17T08:17:07.187Z,12.82
2023-01-17T08:19:33.622Z,13.23
2023-01-17T08:22:00.100Z,12.30
2023-01-17T08:24:26.595Z,12.63
2023-01-17T08:26:55.580Z,13.98
2023-01-17T08:29:22.470Z,12.65
2023-01-17T08:31:49.116Z,14.35
2023-01-17T08:34:15.933Z,12.27
2023-01-17T08:36:47.820Z,20.42
2023-01-17T08:39:14.534Z,18.55
2023-01-17T08:41:40.996Z,15.00
2023-01-17T08:44:07.463Z,15.20
2023-01-17T08:46:33.880Z,12.07
2023-01-17T08:49:01.301Z,11.70
2023-01-17T08:51:27.864Z,12.25
2023-01-17T08:53:55.292Z,12.65
2023-01-17T08:56:21.864Z,11.93
2023-01-17T08:58:48.300Z,12.25
2023-01-17T09:01:14.968Z,12.52
2023-01-17T09:03:41.838Z,11.75
2023-01-17T09:06:09.613Z,11.85
2023-01-17T09:08:36.194Z,12.73
2023-01-17T09:11:03.568Z,12.23
2023-01-17T09:13:30.070Z,12.75
2023-01-17T09:15:57.068Z,14.10
2023-01-17T09:18:24.181Z,12.60
2023-01-17T09:20:54.873Z,14.63
2023-01-17T09:23:25.366Z,14.10
2023-01-17T09:25:52.698Z,12.20
2023-01-17T09:28:19.203Z,12.00
2023-01-17T09:30:45.777Z,13.52
2023-01-17T09:33:12.394Z,12.27
2023-01-17T09:35:38.903Z,10.63
2023-01-17T09:38:05.383Z,10.68
2023-01-17T09:40:31.966Z,10.55
2023-01-17T09:43:03.666Z,9.43
2023-01-17T09:45:31.318Z,10.88
2023-01-17T09:47:59.101Z,12.23
2023-01-17T09:50:45.930Z,10.15
2023-01-17T09:53:13.650Z,9.85
2023-01-17T09:55:43.354Z,8.52
2023-01-17T09:58:12.413Z,8.85
2023-01-17T10:00:41.816Z,10.93
2023-01-17T10:03:26.733Z,10.50
2023-01-17T10:06:05.015Z,10.38
2023-01-17T10:08:31.474Z,11.45
2023-01-17T10:11:27.222Z,9.88
2023-01-17T10:13:53.623Z,13.45
2023-01-17T10:16:40.516Z,10.75
2023-01-17T10:19:12.777Z,10.82
2023-01-17T10:21:42.020Z,15.75
2023-01-17T10:24:28.764Z,12.32
2023-01-17T10:26:58.134Z,13.15
2023-01-17T10:29:28.059Z,11.38
2023-01-17T10:32:01.199Z,11.90
2023-01-17T10:34:34.930Z,12.73
2023-01-17T10:37:19.818Z,10.70
2023-01-17T10:39:48.064Z,11.20
2023-01-17T10:42:21.756Z,10.68
2023-01-17T10:45:07.409Z,12.07
2023-01-17T10:47:36.649Z,12.60
2023-01-17T10:50:05.195Z,11.68
2023-01-17T10:52:43.338Z,11.30
2023-01-17T10:55:22.016Z,18.15
2023-01-17T10:57:49.183Z,27.73
2023-01-17T11:00:22.717Z,17.02
2023-01-17T11:05:24.997Z,10.77
2023-01-17T11:07:57.408Z,11.38
2023-01-17T11:10:41.512Z,10.98
2023-01-17T11:13:20.780Z,11.82
2023-01-17T11:15:51.161Z,12.27
2023-01-17T11:18:21.445Z,10.77
2023-01-17T11:20:48.506Z,12.43
2023-01-17T11:23:29.547Z,10.27
2023-01-17T11:25:58.138Z,10.32
2023-01-17T11:28:30.660Z,11.68
2023-01-17T11:30:58.705Z,10.93
2023-01-17T11:33:31.727Z,11.27
2023-01-17T11:35:58.185Z,13.40
2023-01-17T11:38:24.726Z,10.77
2023-01-17T11:40:53.466Z,11.48
2023-01-17T11:43:28.873Z,11.50
2023-01-17T11:46:06.679Z,11.45
2023-01-17T11:48:38.116Z,11.18
2023-01-17T11:51:10.429Z,12.23
2023-01-17T11:53:38.259Z,10.82
2023-01-17T11:56:12.117Z,11.15
2023-01-17T11:58:41.447Z,11.43
2023-01-17T12:01:07.927Z,10.82
2023-01-17T12:03:49.705Z,11.40
2023-01-17T12:06:22.751Z,10.05
2023-01-17T12:09:01.331Z,11.93
2023-01-17T12:11:30.584Z,11.15
2023-01-17T12:14:03.044Z,9.93
2023-01-17T12:16:35.327Z,10.88
2023-01-17T12:19:06.028Z,11.65
2023-01-17T12:21:46.614Z,11.27
2023-01-17T12:24:41.311Z,11.20
2023-01-17T12:27:10.829Z,12.63
2023-01-17T12:29:47.907Z,10.88
2023-01-17T12:32:17.227Z,11.73
2023-01-17T12:34:47.299Z,14.30
2023-01-17T12:37:26.447Z,10.93
2023-01-17T12:39:55.022Z,11.65
2023-01-17T12:42:24.177Z,11.15
2023-01-17T12:45:00.446Z,11.93
2023-01-17T12:47:26.968Z,11.25
2023-01-17T12:49:58.106Z,10.27
2023-01-17T12:52:43.088Z,9.95
2023-01-17T12:55:15.893Z,10.73
2023-01-17T12:57:45.513Z,10.27
2023-01-17T13:00:12.925Z,13.73
2023-01-17T13:02:59.711Z,13.27
2023-01-17T13:05:26.214Z,9.82
2023-01-17T13:07:58.624Z,11.70
2023-01-17T13:10:30.902Z,11.15
2023-01-17T13:12:59.102Z,11.18
2023-01-17T13:15:28.336Z,11.20
2023-01-17T13:18:09.509Z,13.63
2023-01-17T13:20:56.158Z,13.65
2023-01-17T13:23:31.204Z,11.85
2023-01-17T13:25:58.339Z,10.98
2023-01-17T13:28:35.338Z,11.38
2023-01-17T13:31:13.928Z,10.98
2023-01-17T13:34:03.855Z,12.00
2023-01-17T13:36:39.430Z,10.98
2023-01-17T13:39:08.725Z,12.02
2023-01-17T13:41:44.360Z,11.88
2023-01-17T13:44:24.732Z,10.18
2023-01-17T13:46:54.484Z,11.48
2023-01-17T13:49:23.787Z,11.55
2023-01-17T13:52:12.308Z,12.65
2023-01-17T13:54:51.675Z,12.95
2023-01-17T13:57:29.714Z,12.88
2023-01-17T13:59:57.432Z,12.55
2023-01-17T14:02:32.904Z,12.25
2023-01-17T14:05:07.980Z,10.70
2023-01-17T14:07:35.790Z,11.27
2023-01-17T14:10:15.312Z,12.32
2023-01-17T14:12:41.720Z,13.48
2023-01-17T14:15:18.747Z,12.20
2023-01-17T14:17:50.834Z,12.45
2023-01-17T14:20:17.990Z,12.35
2023-01-17T14:22:49.259Z,11.05
2023-01-17T14:25:20.758Z,12.38
2023-01-17T14:27:55.166Z,12.10
2023-01-17T14:30:27.334Z,13.32
2023-01-17T14:32:56.775Z,15.02
2023-01-17T14:35:23.637Z,14.52
2023-01-17T14:37:53.676Z,14.70
2023-01-17T14:40:20.321Z,14.00
2023-01-17T14:42:48.032Z,12.90
2023-01-17T14:45:18.307Z,14.63
2023-01-17T14:47:45.244Z,13.30
2023-01-17T14:50:17.621Z,12.73
2023-01-17T14:52:46.806Z,15.18
2023-01-17T14:55:15.427Z,16.15
2023-01-17T14:57:42.884Z,16.75
2023-01-17T15:00:18.452Z,16.05
2023-01-17T15:02:45.384Z,18.58
2023-01-17T15:05:15.659Z,15.98
2023-01-17T15:07:43.621Z,17.35
2023-01-17T15:10:12.824Z,14.90
2023-01-17T15:12:39.407Z,16.42
2023-01-17T15:15:25.599Z,17.70
2023-01-17T15:17:53.879Z,16.67
2023-01-17T15:20:20.651Z,17.10
2023-01-17T15:22:47.175Z,17.23
2023-01-17T15:25:15.462Z,16.77
2023-01-17T15:27:42.855Z,16.17
2023-01-17T15:30:11.595Z,16.42
2023-01-17T15:32:38.623Z,15.57
2023-01-17T15:35:07.907Z,14.38
2023-01-17T15:37:34.378Z,14.85
2023-01-17T15:40:03.673Z,12.75
2023-01-17T15:42:31.424Z,15.98
2023-01-17T15:44:59.490Z,17.65
2023-01-17T15:47:33.092Z,21.27
2023-01-17T15:50:00.750Z,21.42
2023-01-17T15:52:27.964Z,23.55
2023-01-17T15:54:58.870Z,20.65
2023-01-17T15:57:36.996Z,20.85
2023-01-17T16:00:07.032Z,22.45
2023-01-17T16:02:35.681Z,22.60
2023-01-17T16:05:22.904Z,21.58
2023-01-17T16:07:53.619Z,19.98
2023-01-17T16:10:28.701Z,20.73
2023-01-17T16:12:56.185Z,19.13
2023-01-17T16:15:25.629Z,21.02
2023-01-17T16:17:53.768Z,23.90
2023-01-17T16:20:25.431Z,21.35
2023-01-17T16:22:52.416Z,23.60
2023-01-17T16:25:20.852Z,21.05
2023-01-17T16:27:47.333Z,20.00
2023-01-17T16:30:15.559Z,19.50
2023-01-17T16:32:48.908Z,17.88
2023-01-17T16:35:19.000Z,19.98
2023-01-17T16:37:47.963Z,19.95
2023-01-17T16:40:15.246Z,21.23
2023-01-17T16:42:42.579Z,20.67
2023-01-17T16:45:10.314Z,21.23
2023-01-17T16:47:36.868Z,21.40
2023-01-17T16:50:03.748Z,19.52
2023-01-17T16:52:30.185Z,21.45
2023-01-17T16:54:56.744Z,23.80
2023-01-17T16:57:23.245Z,23.70
2023-01-17T16:59:51.144Z,22.35
2023-01-17T17:02:18.646Z,22.40
2023-01-17T17:04:45.201Z,22.17
2023-01-17T17:07:11.701Z,24.38
2023-01-17T17:09:38.179Z,23.52
2023-01-17T17:12:05.109Z,24.40
2023-01-17T17:14:31.521Z,25.60
2023-01-17T17:16:57.933Z,22.77
2023-01-17T17:19:24.461Z,23.13
2023-01-17T17:21:50.990Z,22.30
2023-01-17T17:24:17.441Z,22.25
2023-01-17T17:26:44.461Z,23.50
2023-01-17T17:29:12.481Z,23.05
2023-01-17T17:31:39.971Z,23.17
2023-01-17T17:34:07.374Z,23.13
2023-01-17T17:36:34.960Z,24.42
2023-01-17T17:39:03.518Z,25.42
2023-01-17T17:41:34.501Z,23.35
2023-01-17T17:44:01.781Z,23.45
2023-01-17T17:46:29.265Z,24.95
2023-01-17T17:48:56.536Z,24.52
2023-01-17T17:51:24.472Z,25.60
2023-01-17T17:53:52.633Z,24.70
2023-01-17T17:56:20.533Z,24.85
2023-01-17T17:58:47.436Z,28.08
2023-01-17T18:01:13.910Z,27.60
2023-01-17T18:03:40.433Z,25.65
2023-01-17T18:06:08.460Z,27.30
2023-01-17T18:08:35.468Z,26.88
2023-01-17T18:11:02.949Z,28.13
2023-01-17T18:13:29.894Z,26.92
2023-01-17T18:16:07.759Z,28.70
2023-01-17T18:18:35.674Z,27.55
2023-01-17T18:21:29.327Z,30.40
2023-01-17T18:23:58.766Z,28.23
2023-01-17T18:26:35.287Z,28.80
2023-01-17T18:29:02.601Z,28.42
2023-01-17T18:31:30.061Z,27.67
2023-01-17T18:33:57.595Z,30.00
2023-01-17T18:36:24.446Z,29.15
2023-01-17T18:38:51.202Z,27.58
2023-01-17T18:41:21.758Z,28.13
2023-01-17T18:43:48.444Z,28.55
2023-01-17T18:46:15.413Z,29.38
2023-01-17T18:48:41.938Z,29.90
2023-01-17T18:51:09.471Z,30.83
2023-01-17T18:53:37.491Z,32.38
2023-01-17T18:56:05.610Z,36.80
2023-01-17T18:58:34.966Z,33.70
2023-01-17T19:01:08.718Z,39.05
2023-01-17T19:03:35.280Z,39.08
2023-01-17T19:06:02.135Z,38.58
2023-01-17T19:08:29.097Z,34.92
2023-01-17T19:10:55.578Z,33.58
2023-01-17T19:13:22.027Z,37.17
2023-01-17T19:15:48.519Z,35.25
2023-01-17T19:18:14.965Z,37.00
2023-01-17T19:20:41.459Z,38.05
2023-01-17T19:23:07.888Z,36.83
2023-01-17T19:25:34.806Z,37.15
2023-01-17T19:28:01.559Z,35.30
2023-01-17T19:30:28.068Z,38.55
2023-01-17T19:32:55.942Z,39.95
2023-01-17T19:35:23.056Z,40.30
2023-01-17T19:37:50.846Z,45.55
2023-01-17T19:40:18.465Z,47.42
2023-01-17T19:42:44.889Z,47.50
2023-01-17T19:45:12.826Z,49.15
2023-01-17T19:47:39.764Z,52.10
2023-01-17T19:50:08.381Z,46.17
2023-01-17T19:52:35.287Z,49.33
2023-01-17T19:55:02.099Z,44.08
2023-01-17T19:57:34.809Z,47.78
2023-01-17T20:00:01.890Z,44.03
2023-01-17T20:02:28.650Z,43.60
2023-01-17T20:04:55.136Z,47.55
2023-01-17T20:07:21.572Z,48.03
2023-01-17T20:09:47.967Z,46.00
2023-01-17T20:12:14.612Z,44.72
2023-01-17T20:14:41.027Z,50.75
2023-01-17T20:17:07.497Z,43.83
2023-01-17T20:19:33.891Z,48.50
2023-01-17T20:22:00.377Z,41.33
2023-01-17T20:24:26.964Z,47.35
2023-01-17T20:26:53.411Z,44.58
2023-01-17T20:29:19.907Z,44.50
2023-01-17T20:31:46.515Z,43.72
2023-01-17T20:34:13.687Z,41.33
2023-01-17T20:36:41.686Z,39.13
2023-01-17T20:39:08.877Z,43.55
2023-01-17T20:41:36.457Z,40.90
2023-01-17T20:44:03.817Z,39.97
2023-01-17T20:46:35.670Z,40.08
2023-01-17T20:49:05.392Z,38.55
2023-01-17T20:51:34.458Z,38.80
2023-01-17T20:54:02.655Z,39.20
2023-01-17T20:56:34.721Z,37.45
2023-01-17T20:59:03.717Z,42.50
2023-01-17T21:01:30.683Z,38.83
2023-01-17T21:03:57.708Z,42.45
2023-01-17T21:06:24.658Z,39.95
2023-01-17T21:08:51.448Z,40.92
2023-01-17T21:11:26.402Z,38.30
2023-01-17T21:13:53.148Z,37.20
2023-01-17T21:16:22.845Z,38.42
2023-01-17T21:18:50.496Z,38.17
2023-01-17T21:21:18.698Z,38.30
2023-01-17T21:23:45.502Z,40.00
2023-01-17T21:26:13.125Z,38.42
2023-01-17T21:28:40.855Z,43.50
2023-01-17T21:31:23.254Z,37.75
2023-01-17T21:33:57.279Z,42.00
2023-01-17T21:36:25.179Z,43.05
2023-01-17T21:38:54.532Z,42.78
2023-01-17T21:41:22.624Z,40.10
2023-01-17T21:43:53.260Z,36.72
2023-01-17T21:46:19.761Z,43.22
2023-01-17T21:48:46.245Z,43.13
2023-01-17T21:51:12.742Z,51.42
2023-01-17T21:53:39.723Z,51.47
2023-01-17T21:56:26.216Z,64.70
2023-01-17T21:58:54.722Z,61.17
2023-01-17T22:01:22.612Z,55.47
2023-01-17T22:03:51.115Z,54.58
2023-01-17T22:06:17.987Z,58.50
2023-01-17T22:08:44.757Z,46.20
2023-01-17T22:11:12.689Z,50.50
2023-01-17T22:13:39.815Z,50.78
2023-01-17T22:16:08.652Z,44.83
2023-01-17T22:18:39.061Z,48.58
2023-01-17T22:21:11.755Z,48.25
2023-01-17T22:23:38.437Z,44.75
2023-01-17T22:26:12.055Z,45.83
2023-01-17T22:28:39.403Z,46.80
2023-01-17T22:31:08.273Z,51.20
2023-01-17T22:33:35.979Z,53.17
2023-01-17T22:36:02.418Z,55.38
2023-01-17T22:38:28.833Z,59.55
2023-01-17T22:41:01.216Z,58.42
2023-01-17T22:43:27.624Z,55.67
2023-01-17T22:45:58.690Z,62.47
2023-01-17T22:48:25.505Z,61.08
2023-01-17T22:50:56.559Z,62.35
2023-01-17T22:53:23.031Z,63.78
2023-01-17T22:55:57.496Z,61.20
2023-01-17T22:58:23.919Z,61.05
2023-01-17T23:00:50.999Z,65.18
2023-01-17T23:03:17.515Z,57.55
2023-01-17T23:05:46.786Z,60.33
2023-01-17T23:08:13.246Z,61.85
2023-01-17T23:11:00.117Z,65.63
2023-01-17T23:13:26.580Z,63.00
2023-01-17T23:16:11.508Z,67.40
2023-01-17T23:19:01.216Z,56.25
2023-01-17T23:21:47.669Z,57.95
2023-01-17T23:24:14.129Z,55.22
2023-01-17T23:27:00.541Z,55.50
2023-01-17T23:29:27.009Z,58.25
2023-01-17T23:31:53.530Z,57.97
2023-01-17T23:34:20.142Z,59.28
2023-01-17T23:36:46.575Z,61.20
2023-01-17T23:39:12.991Z,62.70
2023-01-17T23:41:57.869Z,60.97
2023-01-17T23:44:27.233Z,55.85
2023-01-17T23:46:53.673Z,56.78
2023-01-17T23:49:20.202Z,55.25
2023-01-17T23:51:47.246Z,57.17
2023-01-17T23:54:13.663Z,57.50
2023-01-17T23:56:40.066Z,51.42
2023-01-17T23:59:06.477Z,56.60
